createdAt,value
2022-11-11T00:02:07.310Z,89.57
2022-11-11T00:05:28.303Z,89.26
2022-11-11T00:08:49.630Z,89.41
2022-11-11T00:12:10.569Z,89.70
2022-11-11T00:15:31.693Z,89.15
2022-11-11T00:19:10.844Z,89.15
2022-11-11T00:22:50.157Z,89.33
2022-11-11T00:26:37.970Z,88.71
2022-11-11T00:29:54.993Z,88.59
2022-11-11T00:33:15.793Z,89.04
2022-11-11T00:36:36.397Z,88.99
2022-11-11T00:39:57.163Z,89.45
2022-11-11T00:43:17.997Z,89.61
2022-11-11T00:46:57.133Z,89.34
2022-11-11T00:50:42.506Z,89.35
2022-11-11T00:54:03.441Z,90.18
2022-11-11T00:57:24.235Z,90.81
2022-11-11T01:00:45.513Z,91.32
2022-11-11T01:04:06.559Z,91.32
2022-11-11T01:07:27.885Z,91.67
2022-11-11T01:10:49.719Z,92.01
2022-11-11T01:14:11.106Z,91.97
2022-11-11T01:17:32.423Z,92.32
2022-11-11T01:20:59.782Z,92.27
2022-11-11T01:24:21.230Z,92.36
2022-11-11T01:27:42.408Z,92.42
2022-11-11T01:31:09.189Z,92.49
2022-11-11T01:34:30.331Z,92.53
2022-11-11T01:37:51.427Z,92.70
2022-11-11T01:41:32.967Z,92.65
2022-11-11T01:44:54.331Z,92.77
2022-11-11T01:49:02.040Z,93.33
2022-11-11T01:52:31.983Z,92.98
2022-11-11T01:55:54.173Z,93.80
2022-11-11T01:59:17.930Z,94.07
2022-11-11T02:02:43.624Z,94.06
2022-11-11T02:06:04.897Z,94.24
2022-11-11T02:09:26.698Z,93.90
2022-11-11T02:13:06.108Z,93.72
2022-11-11T02:16:27.490Z,93.69
2022-11-11T02:19:57.953Z,93.27
2022-11-11T02:23:37.592Z,93.05
2022-11-11T02:27:00.226Z,93.04
2022-11-11T02:30:21.745Z,92.90
2022-11-11T02:33:42.821Z,93.11
2022-11-11T02:37:06.787Z,92.93
2022-11-11T02:40:37.254Z,93.25
2022-11-11T02:43:58.141Z,93.43
2022-11-11T02:47:19.186Z,93.44
2022-11-11T02:50:40.039Z,94.12
2022-11-11T02:54:01.277Z,94.19
2022-11-11T02:57:23.013Z,94.08
2022-11-11T03:00:44.353Z,94.28
2022-11-11T03:04:06.246Z,94.34
2022-11-11T03:07:27.479Z,94.16
2022-11-11T03:10:48.818Z,94.61
2022-11-11T03:14:10.260Z,94.29
2022-11-11T03:17:40.144Z,93.82
2022-11-11T03:21:54.388Z,93.59
2022-11-11T03:25:06.502Z,93.54
2022-11-11T03:28:27.583Z,92.39
2022-11-11T03:31:50.719Z,92.87
2022-11-11T03:35:11.561Z,93.16
2022-11-11T03:38:32.647Z,93.53
2022-11-11T03:41:53.729Z,93.99
2022-11-11T03:45:14.842Z,93.64
2022-11-11T03:48:35.779Z,93.58
2022-11-11T03:51:56.518Z,93.46
2022-11-11T03:55:17.493Z,93.24
2022-11-11T03:58:38.241Z,92.79
2022-11-11T04:02:17.387Z,92.42
2022-11-11T04:05:56.817Z,92.24
2022-11-11T04:09:36.076Z,92.13
2022-11-11T04:13:18.104Z,91.71
2022-11-11T04:16:39.143Z,90.63
2022-11-11T04:20:18.342Z,91.06
2022-11-11T04:23:39.313Z,95.87
2022-11-11T04:27:02.343Z,91.01
2022-11-11T04:30:23.058Z,88.53
2022-11-11T04:33:43.772Z,93.72
2022-11-11T04:37:04.655Z,94.03
2022-11-11T04:40:43.868Z,93.68
2022-11-11T04:44:23.998Z,93.48
2022-11-11T04:47:53.406Z,92.91
2022-11-11T04:51:14.490Z,94.05
2022-11-11T04:54:55.148Z,94.65
2022-11-11T04:58:18.027Z,93.46
2022-11-11T05:01:57.629Z,89.70
2022-11-11T05:05:18.329Z,90.12
2022-11-11T05:08:56.431Z,89.62
2022-11-11T05:12:17.670Z,89.95
2022-11-11T05:15:58.965Z,93.08
2022-11-11T05:19:38.722Z,92.88
2022-11-11T05:22:59.452Z,88.64
2022-11-11T05:26:20.435Z,91.55
2022-11-11T05:29:41.460Z,90.53
2022-11-11T05:33:02.944Z,89.66
2022-11-11T05:36:24.102Z,89.76
2022-11-11T05:39:45.900Z,90.92
2022-11-11T05:43:06.915Z,91.26
2022-11-11T05:46:28.051Z,89.04
2022-11-11T05:49:48.795Z,89.68
2022-11-11T05:53:09.717Z,88.87
2022-11-11T05:56:30.736Z,89.59
2022-11-11T05:59:51.657Z,90.86
2022-11-11T06:03:13.185Z,90.89
2022-11-11T06:06:35.843Z,90.46
2022-11-11T06:10:17.299Z,87.48
2022-11-11T06:13:38.476Z,86.82
2022-11-11T06:16:59.549Z,88.90
2022-11-11T06:20:20.942Z,88.91
2022-11-11T06:23:42.029Z,88.71
2022-11-11T06:27:02.811Z,89.82
2022-11-11T06:30:51.816Z,89.57
2022-11-11T06:34:04.758Z,88.44
2022-11-11T06:37:25.833Z,86.24
2022-11-11T06:40:47.015Z,85.14
2022-11-11T06:44:07.938Z,85.96
2022-11-11T06:47:29.125Z,88.23
2022-11-11T06:50:50.986Z,88.11
2022-11-11T06:54:12.045Z,88.15
2022-11-11T06:57:33.845Z,88.60
2022-11-11T07:00:54.823Z,87.22
2022-11-11T07:04:16.266Z,87.56
2022-11-11T07:07:37.715Z,87.46
2022-11-11T07:11:03.484Z,87.85
2022-11-11T07:14:28.233Z,85.66
2022-11-11T07:17:49.165Z,86.43
2022-11-11T07:21:09.961Z,85.82
2022-11-11T07:24:30.932Z,83.71
2022-11-11T07:27:57.804Z,84.30
2022-11-11T07:31:20.206Z,84.05
2022-11-11T07:34:41.448Z,82.96
2022-11-11T07:38:03.196Z,82.96
2022-11-11T07:41:24.592Z,82.22
2022-11-11T07:44:49.330Z,81.89
2022-11-11T07:48:11.046Z,82.61
2022-11-11T07:51:32.400Z,82.46
2022-11-11T07:54:53.601Z,82.43
2022-11-11T07:58:14.779Z,80.98
2022-11-11T08:01:36.573Z,82.15
2022-11-11T08:04:58.178Z,82.21
2022-11-11T08:08:25.475Z,82.91
2022-11-11T08:12:05.817Z,83.63
2022-11-11T08:15:27.083Z,83.27
2022-11-11T08:18:48.493Z,83.81
2022-11-11T08:22:10.014Z,84.79
2022-11-11T08:25:32.003Z,83.97
2022-11-11T08:28:53.773Z,84.01
2022-11-11T08:32:15.325Z,84.58
2022-11-11T08:35:36.470Z,85.30
2022-11-11T08:38:57.814Z,84.69
2022-11-11T08:42:19.193Z,84.26
2022-11-11T08:45:40.635Z,84.01
2022-11-11T08:49:02.449Z,83.78
2022-11-11T08:52:23.610Z,84.00
2022-11-11T08:55:45.412Z,83.73
2022-11-11T08:59:06.822Z,82.75
2022-11-11T09:02:28.050Z,82.49
2022-11-11T09:05:49.391Z,82.30
2022-11-11T09:09:10.596Z,79.91
2022-11-11T09:12:33.298Z,77.91
2022-11-11T09:15:55.327Z,76.66
2022-11-11T09:19:16.145Z,78.18
2022-11-11T09:22:43.263Z,76.98
2022-11-11T09:26:04.350Z,77.26
2022-11-11T09:29:25.543Z,77.45
2022-11-11T09:33:12.731Z,75.83
2022-11-11T09:36:39.427Z,76.04
2022-11-11T09:40:01.466Z,76.35
2022-11-11T09:43:29.966Z,74.77
2022-11-11T09:47:39.955Z,74.42
2022-11-11T09:51:05.618Z,74.86
2022-11-11T09:54:50.440Z,74.35
2022-11-11T09:58:35.047Z,74.44
2022-11-11T10:01:59.606Z,73.12
2022-11-11T10:05:31.104Z,71.05
2022-11-11T10:09:02.672Z,67.96
2022-11-11T10:12:43.371Z,66.61
2022-11-11T10:16:26.245Z,67.00
2022-11-11T10:20:14.235Z,67.76
2022-11-11T10:23:37.699Z,67.42
2022-11-11T10:27:04.866Z,66.54
2022-11-11T10:30:32.036Z,64.51
2022-11-11T10:34:02.955Z,63.37
2022-11-11T10:37:31.402Z,63.09
2022-11-11T10:40:59.780Z,62.71
2022-11-11T10:44:27.729Z,63.32
2022-11-11T10:48:07.602Z,65.27
2022-11-11T10:51:37.191Z,64.15
2022-11-11T10:55:24.080Z,62.54
2022-11-11T10:58:48.344Z,61.57
2022-11-11T11:02:23.648Z,61.35
2022-11-11T11:06:12.364Z,62.06
2022-11-11T11:10:11.077Z,60.87
2022-11-11T11:13:55.242Z,61.05
2022-11-11T11:17:47.027Z,61.29
2022-11-11T11:21:21.706Z,61.42
2022-11-11T11:25:20.434Z,62.25
2022-11-11T11:29:46.841Z,60.62
2022-11-11T11:33:15.400Z,60.17
2022-11-11T11:36:46.607Z,58.95
2022-11-11T11:40:15.077Z,56.56
2022-11-11T11:43:48.123Z,56.81
2022-11-11T11:47:29.537Z,56.38
2022-11-11T11:50:58.926Z,55.71
2022-11-11T11:54:50.933Z,55.95
2022-11-11T11:58:47.036Z,55.41
2022-11-11T12:02:57.349Z,56.42
2022-11-11T12:07:29.343Z,54.04
2022-11-11T12:11:24.476Z,56.32
2022-11-11T12:15:29.350Z,58.10
2022-11-11T12:20:09.020Z,57.13
2022-11-11T12:24:10.378Z,54.50
2022-11-11T12:28:02.678Z,55.27
2022-11-11T12:31:36.840Z,60.51
2022-11-11T12:35:42.456Z,61.47
2022-11-11T12:43:54.855Z,56.86
2022-11-11T12:47:43.769Z,56.64
2022-11-11T12:51:59.559Z,57.63
2022-11-11T12:55:32.807Z,58.40
2022-11-11T13:00:18.600Z,59.14
2022-11-11T13:08:32.000Z,60.00
2022-11-11T13:16:28.319Z,60.84
2022-11-11T13:20:04.961Z,61.65
2022-11-11T13:24:27.732Z,62.60
2022-11-11T13:28:49.532Z,62.67
2022-11-11T13:32:31.576Z,62.81
2022-11-11T13:36:24.741Z,64.17
2022-11-11T13:39:51.969Z,64.16
2022-11-11T13:43:34.173Z,64.63
2022-11-11T13:47:02.879Z,66.15
2022-11-11T13:50:36.352Z,66.60
2022-11-11T13:53:59.582Z,66.79
2022-11-11T13:57:23.774Z,67.46
2022-11-11T14:00:44.764Z,67.74
2022-11-11T14:04:08.342Z,68.53
2022-11-11T14:07:57.514Z,69.52
2022-11-11T14:11:24.254Z,70.14
2022-11-11T14:14:50.443Z,70.78
2022-11-11T14:18:32.003Z,71.60
2022-11-11T14:22:16.910Z,72.63
2022-11-11T14:25:37.751Z,73.69
2022-11-11T14:29:03.775Z,74.53
2022-11-11T14:32:38.242Z,75.11
2022-11-11T14:36:07.025Z,75.58
2022-11-11T14:39:45.079Z,76.51
2022-11-11T14:43:41.680Z,83.03
2022-11-11T14:47:02.630Z,77.30
2022-11-11T14:50:32.408Z,79.34
2022-11-11T14:53:54.054Z,78.94
2022-11-11T14:57:30.626Z,77.90
2022-11-11T15:01:03.686Z,79.22
2022-11-11T15:04:26.836Z,80.34
2022-11-11T15:08:00.249Z,77.63
2022-11-11T15:11:37.012Z,80.87
2022-11-11T15:15:25.893Z,80.26
2022-11-11T15:18:54.769Z,78.95
2022-11-11T15:22:51.180Z,79.31
2022-11-11T15:26:47.346Z,80.27
2022-11-11T15:30:19.145Z,81.84
2022-11-11T15:33:59.482Z,81.63
2022-11-11T15:37:22.648Z,84.45
2022-11-11T15:40:49.857Z,84.47
2022-11-11T15:44:32.494Z,83.37
2022-11-11T15:47:54.330Z,83.67
2022-11-11T15:51:38.758Z,80.66
2022-11-11T15:55:02.249Z,80.06
2022-11-11T15:58:26.398Z,81.83
2022-11-11T16:01:47.765Z,82.65
2022-11-11T16:05:22.950Z,81.93
2022-11-11T16:08:53.580Z,83.75
2022-11-11T16:12:24.517Z,80.81
2022-11-11T16:15:56.918Z,83.87
2022-11-11T16:19:26.016Z,81.57
2022-11-11T16:22:48.850Z,82.30
2022-11-11T16:26:10.708Z,83.10
2022-11-11T16:29:38.876Z,82.00
2022-11-11T16:32:59.834Z,80.95
2022-11-11T16:36:20.993Z,81.79
2022-11-11T16:39:43.487Z,81.67
2022-11-11T16:43:22.721Z,83.03
2022-11-11T16:46:44.108Z,85.30
2022-11-11T16:50:10.740Z,84.31
2022-11-11T16:53:36.023Z,84.43
2022-11-11T16:56:59.567Z,85.26
2022-11-11T17:00:24.229Z,85.28
2022-11-11T17:03:54.388Z,82.04
2022-11-11T17:07:35.795Z,84.05
2022-11-11T17:10:56.903Z,84.31
2022-11-11T17:14:18.044Z,84.51
2022-11-11T17:17:40.677Z,85.34
2022-11-11T17:21:02.570Z,85.38
2022-11-11T17:24:23.834Z,85.60
2022-11-11T17:27:45.345Z,85.64
2022-11-11T17:31:08.695Z,86.01
2022-11-11T17:34:29.889Z,86.52
2022-11-11T17:37:51.157Z,86.37
2022-11-11T17:41:15.682Z,86.54
2022-11-11T17:44:36.810Z,86.62
2022-11-11T17:47:57.808Z,86.49
2022-11-11T17:51:19.284Z,86.83
2022-11-11T17:54:40.325Z,87.32
2022-11-11T17:58:01.634Z,87.49
2022-11-11T18:01:22.950Z,87.52
2022-11-11T18:04:44.087Z,87.66
2022-11-11T18:08:05.586Z,88.51
2022-11-11T18:11:26.330Z,88.08
2022-11-11T18:14:47.109Z,87.59
2022-11-11T18:18:08.159Z,88.00
2022-11-11T18:21:29.619Z,87.99
2022-11-11T18:24:50.895Z,87.76
2022-11-11T18:28:11.924Z,87.62
2022-11-11T18:31:33.833Z,88.11
2022-11-11T18:34:54.712Z,88.36
2022-11-11T18:38:15.811Z,88.78
2022-11-11T18:41:37.031Z,88.50
2022-11-11T18:44:58.368Z,88.25
2022-11-11T18:48:19.684Z,88.50
2022-11-11T18:51:41.613Z,88.87
2022-11-11T18:55:02.769Z,88.44
2022-11-11T18:58:24.074Z,87.93
2022-11-11T19:01:47.284Z,87.89
2022-11-11T19:05:12.048Z,87.73
2022-11-11T19:08:35.361Z,87.86
2022-11-11T19:11:56.898Z,88.13
2022-11-11T19:15:18.273Z,87.79
2022-11-11T19:18:40.210Z,88.37
2022-11-11T19:22:01.648Z,88.80
2022-11-11T19:25:22.598Z,88.79
2022-11-11T19:28:43.700Z,88.50
2022-11-11T19:32:05.508Z,88.46
2022-11-11T19:35:27.007Z,88.84
2022-11-11T19:38:48.773Z,88.52
2022-11-11T19:42:10.299Z,88.39
2022-11-11T19:45:36.635Z,88.99
2022-11-11T19:48:59.545Z,88.69
2022-11-11T19:52:20.597Z,88.65
2022-11-11T19:55:41.848Z,88.82
2022-11-11T19:59:03.536Z,88.90
2022-11-11T20:02:24.289Z,89.03
2022-11-11T20:05:45.133Z,88.61
2022-11-11T20:09:07.776Z,89.01
2022-11-11T20:12:28.696Z,88.03
2022-11-11T20:15:49.619Z,88.40
2022-11-11T20:19:10.847Z,88.05
2022-11-11T20:22:31.786Z,87.25
2022-11-11T20:25:54.114Z,87.98
2022-11-11T20:29:15.598Z,87.19
2022-11-11T20:32:36.663Z,87.30
2022-11-11T20:36:02.188Z,87.58
2022-11-11T20:39:23.474Z,88.12
2022-11-11T20:42:44.582Z,87.40
2022-11-11T20:46:25.956Z,87.75
2022-11-11T20:49:47.651Z,88.11
2022-11-11T20:53:08.358Z,88.96
2022-11-11T20:56:29.616Z,89.01
2022-11-11T20:59:50.751Z,89.45
2022-11-11T21:03:11.972Z,89.63
2022-11-11T21:06:34.933Z,90.11
2022-11-11T21:09:56.146Z,89.69
2022-11-11T21:13:17.644Z,90.51
2022-11-11T21:16:38.833Z,90.09
2022-11-11T21:20:00.020Z,91.05
2022-11-11T21:23:21.271Z,91.15
2022-11-11T21:26:42.286Z,90.95
2022-11-11T21:30:03.513Z,90.91
2022-11-11T21:33:24.852Z,90.31
2022-11-11T21:36:46.034Z,90.86
2022-11-11T21:40:07.721Z,90.71
2022-11-11T21:43:28.711Z,90.75
2022-11-11T21:46:49.722Z,90.22
2022-11-11T21:50:10.865Z,89.86
2022-11-11T21:53:32.378Z,89.30
2022-11-11T21:56:54.606Z,88.98
2022-11-11T22:00:15.849Z,88.65
2022-11-11T22:03:38.449Z,89.63
2022-11-11T22:06:59.343Z,90.00
2022-11-11T22:10:20.156Z,90.32
2022-11-11T22:13:45.227Z,90.71
2022-11-11T22:17:06.406Z,91.04
2022-11-11T22:20:27.208Z,90.78
2022-11-11T22:23:52.816Z,90.70
2022-11-11T22:27:13.990Z,90.65
2022-11-11T22:30:34.816Z,90.37
2022-11-11T22:34:00.153Z,90.16
2022-11-11T22:37:21.589Z,89.99
2022-11-11T22:40:42.459Z,89.69
2022-11-11T22:44:03.583Z,89.12
2022-11-11T22:47:24.357Z,89.06
2022-11-11T22:50:45.266Z,88.54
2022-11-11T22:54:06.843Z,87.78
2022-11-11T22:57:30.762Z,87.75
2022-11-11T23:00:51.693Z,88.29
2022-11-11T23:04:12.832Z,88.00
2022-11-11T23:07:33.594Z,87.72
2022-11-11T23:10:54.588Z,88.05
2022-11-11T23:14:25.758Z,87.57
2022-11-11T23:17:51.278Z,86.99
2022-11-11T23:21:17.203Z,87.55
2022-11-11T23:24:38.067Z,86.69
2022-11-11T23:27:59.084Z,87.22
2022-11-11T23:31:47.792Z,87.13
2022-11-11T23:35:22.180Z,87.38
2022-11-11T23:38:44.852Z,87.82
2022-11-11T23:42:06.289Z,87.62
2022-11-11T23:45:27.373Z,87.52
2022-11-11T23:48:48.483Z,87.56
2022-11-11T23:52:09.494Z,87.86
2022-11-11T23:55:30.656Z,87.83
2022-11-11T23:58:51.439Z,87.39
